Home   Weather   USA   Truckee   Past weeks
Flag for USA

Past Weather in Truckee, California, USA — Yesterday and Last 2 Weeks

Currently: 39 °F. Passing clouds. (Weather station: Tahoe Airport, USA). See more current weather

Past Weather in Truckee — Graph

°F

Truckee Temperature Yesterday

Maximum temperature yesterday: 48 °F (at 6:47 am)
Minimum temperature yesterday: 32 °F (at 10:35 pm)
Average temperature yesterday: 37 °F

High & Low Weather Summary for the Past Weeks

 TemperatureHumidityPressure
High54 °F (Feb 24, 2:48 pm)100% (Feb 12, 10:15 pm)30.31 "Hg (Feb 12, 10:15 pm)
Low18 °F (Feb 12, 9:05 am)28% (Feb 24, 2:48 pm)29.72 "Hg (Feb 19, 1:55 am)
Average31 °F85%30.06 "Hg
* Reported Feb 12 9:05 am — Feb 27 9:49 am, Truckee. Weather by CustomWeather, © 2024

Note: Actual official high and low records may vary slightly from our data, if they occured in-between our weather recording intervals... More about our weather records

Truckee Weather History for the Previous 24 Hours

Scroll right to see more
 ConditionsComfort  
Time TempWeatherWind HumidityBarometerVisibility
9:49 am
Tue, Feb 27
34 °FScattered clouds.No wind70%30.08 "Hg10 mi
8:49 am30 °FScattered clouds.No wind75%30.07 "Hg10 mi
7:49 am27 °FScattered clouds.No wind80%30.06 "Hg10 mi
6:53 am23 °FScattered clouds.No wind86%30.02 "Hg10 mi
6:35 am23 °FClear.No wind93%30.01 "Hg10 mi
6:15 am25 °FClear.3 mph93%30.00 "Hg10 mi
5:55 am23 °FClear.No wind100%30.00 "Hg10 mi
5:15 am25 °FClear.No wind93%29.98 "Hg10 mi
4:55 am27 °FClear.3 mph86%29.97 "Hg10 mi
4:15 am25 °FClear.No wind93%29.97 "Hg10 mi
3:55 am27 °FClear.No wind86%29.97 "Hg10 mi
3:35 am28 °FClear.3 mph80%29.96 "Hg10 mi
2:55 am28 °FPassing clouds.3 mph80%29.94 "Hg10 mi
2:35 am27 °FPassing clouds.3 mph86%29.95 "Hg10 mi
2:15 am28 °FPassing clouds.5 mph80%29.95 "Hg10 mi
1:55 am30 °FPassing clouds.5 mph80%29.94 "Hg10 mi
1:35 am30 °FPassing clouds.No wind80%29.94 "Hg10 mi
1:15 am34 °FPassing clouds.3 mph70%29.93 "Hg10 mi
12:55 am32 °FPassing clouds.7 mph75%29.92 "Hg10 mi
12:35 am34 °FPassing clouds.6 mph70%29.92 "Hg10 mi
12:15 am34 °FMostly cloudy.7 mph75%29.92 "Hg10 mi
11:55 pm
Mon, Feb 26
34 °FOvercast.No wind75%29.92 "Hg10 mi
11:35 pm34 °FPassing clouds.No wind75%29.91 "Hg10 mi
11:15 pm34 °FPassing clouds.7 mph81%29.91 "Hg10 mi
10:55 pm32 °FPartly cloudy.7 mph93%29.91 "Hg10 mi
10:35 pm32 °FLight snow. Overcast.No wind100%29.91 "Hg7 mi
10:15 pm34 °FLight snow. Overcast.12 mph87%29.91 "Hg4 mi
9:55 pm34 °FOvercast.10 mph87%29.90 "Hg10 mi
9:35 pm36 °FOvercast.7 mph75%29.90 "Hg10 mi
8:55 pm36 °FMostly cloudy.13 mph75%29.88 "Hg10 mi
8:35 pm36 °FMostly cloudy.14 mph75%29.87 "Hg10 mi
8:15 pm36 °FOvercast.17 mph75%29.86 "Hg10 mi
7:55 pm36 °FMostly cloudy.18 mph75%29.86 "Hg10 mi
7:35 pm36 °FOvercast.18 mph75%29.87 "Hg10 mi
7:15 pm36 °FMostly cloudy.6 mph81%29.86 "Hg10 mi
6:55 pm36 °FOvercast.7 mph75%29.86 "Hg10 mi
5:48 pm37 °FFog.8 mph70%29.85 "Hg6 mi
4:49 pm39 °FMostly cloudy.21 mph65%29.86 "Hg8 mi
2:49 pm41 °FPartly sunny.20 mph57%29.87 "Hg10 mi
1:50 pm39 °FSprinkles. Partly sunny.9 mph70%29.90 "Hg8 mi
12:49 pm39 °FSnow flurries. Fog.9 mph75%29.93 "Hg4 mi
11:49 am36 °FDrizzle. Mostly cloudy.12 mph87%29.95 "Hg5 mi
Weather by CustomWeather, © 2024

See weather overview